Time;durP1;ratioP1;P1;durP2;ratioP2;P2;SDS_P1;SDS_P2;PMS_P1;PMS_P2;Temp;Humidity;BMP_temperature;BMP_pressure;BME280_temperature;BME280_humidity;BME280_pressure;Samples;Min_cycle;Max_cycle;Signal;HPM_P1;HPM_P2
2023/08/03 00:02:23;;;;;;;6.95;2.50;;;;;;;19.29;100.00;99307.47;5606244;31;34119;-70
2023/08/03 00:05:27;;;;;;;5.25;2.67;;;;;;;19.34;100.00;99309.41;5606379;31;34904;-69
2023/08/03 00:08:29;;;;;;;5.60;2.62;;;;;;;19.27;100.00;99309.56;5606340;31;34646;-70
2023/08/03 00:11:32;;;;;;;5.05;2.53;;;;;;;19.19;100.00;99310.03;5606639;31;33835;-70
2023/08/03 00:14:35;;;;;;;4.68;2.33;;;;;;;19.20;100.00;99313.53;5606240;31;33589;-69
2023/08/03 00:17:38;;;;;;;4.62;2.50;;;;;;;19.12;100.00;99313.97;5606202;31;33815;-69
2023/08/03 00:20:40;;;;;;;5.12;2.30;;;;;;;19.06;100.00;99315.78;5606002;31;34082;-69
2023/08/03 00:23:43;;;;;;;5.45;2.15;;;;;;;19.02;100.00;99312.78;5605979;31;34166;-69
2023/08/03 00:26:46;;;;;;;3.90;2.30;;;;;;;18.97;100.00;99319.97;5606096;31;33613;-69
2023/08/03 00:29:49;;;;;;;6.18;2.20;;;;;;;18.94;100.00;99321.25;5605946;31;33815;-69
2023/08/03 00:32:51;;;;;;;5.25;2.10;;;;;;;18.94;100.00;99325.81;5605737;31;33753;-69
2023/08/03 00:35:56;;;;;;;4.62;1.80;;;;;;;18.92;100.00;99323.37;5606145;31;33889;-69
2023/08/03 00:38:58;;;;;;;4.72;1.60;;;;;;;18.97;100.00;99323.47;5605749;31;33896;-70
2023/08/03 00:42:01;;;;;;;3.37;2.00;;;;;;;18.92;100.00;99331.44;5605819;31;34900;-69
2023/08/03 00:45:04;;;;;;;4.22;2.00;;;;;;;18.88;100.00;99327.59;5605490;31;34451;-69
2023/08/03 00:48:08;;;;;;;3.62;1.92;;;;;;;18.88;100.00;99324.91;5607522;31;33593;-69
2023/08/03 00:51:11;;;;;;;5.35;1.92;;;;;;;18.87;100.00;99325.19;5607939;31;34147;-69
2023/08/03 00:54:14;;;;;;;4.40;1.90;;;;;;;18.82;100.00;99319.72;5607315;31;33640;-69
2023/08/03 00:57:17;;;;;;;3.10;1.77;;;;;;;18.83;100.00;99316.78;5608466;31;34691;-69
2023/08/03 01:00:20;;;;;;;4.37;1.87;;;;;;;18.82;100.00;99322.41;5607935;31;33660;-69
2023/08/03 01:03:23;;;;;;;3.17;1.80;;;;;;;18.75;100.00;99316.38;5607861;31;36323;-69
2023/08/03 01:06:26;;;;;;;4.32;1.70;;;;;;;18.73;100.00;99310.47;5607906;31;34279;-69
2023/08/03 01:09:29;;;;;;;8.70;1.98;;;;;;;18.77;100.00;99315.09;5607808;31;33854;-69
2023/08/03 01:12:32;;;;;;;4.95;1.95;;;;;;;18.74;100.00;99314.75;5607903;31;33878;-69
2023/08/03 01:15:34;;;;;;;7.00;1.58;;;;;;;18.71;100.00;99315.25;5607920;31;33962;-69
2023/08/03 01:18:41;;;;;;;5.60;1.85;;;;;;;18.67;100.00;99318.44;5608281;31;34406;-70
2023/08/03 01:21:46;;;;;;;3.80;1.83;;;;;;;18.59;100.00;99318.84;5606920;31;34723;-69
2023/08/03 01:24:49;;;;;;;4.03;1.55;;;;;;;18.50;100.00;99320.28;5607740;31;33988;-69
2023/08/03 01:27:52;;;;;;;6.40;2.00;;;;;;;18.46;100.00;99310.28;5608130;31;33812;-69
2023/08/03 01:30:55;;;;;;;3.15;1.80;;;;;;;18.46;100.00;99313.78;5607778;31;33793;-69
2023/08/03 01:33:58;;;;;;;5.10;1.73;;;;;;;18.41;100.00;99308.34;5608183;31;33731;-69
2023/08/03 01:37:01;;;;;;;4.47;2.12;;;;;;;18.42;100.00;99306.47;5607681;31;33852;-69
2023/08/03 01:40:04;;;;;;;6.40;2.03;;;;;;;18.58;100.00;99306.50;5608058;31;33926;-70
2023/08/03 01:43:07;;;;;;;4.22;2.00;;;;;;;18.40;100.00;99304.00;5607630;31;32014;-70
2023/08/03 01:46:10;;;;;;;3.22;1.92;;;;;;;18.30;100.00;99303.06;5607453;31;34618;-69
2023/08/03 01:49:13;;;;;;;3.10;1.90;;;;;;;18.22;100.00;99296.22;5607634;31;33840;-68
2023/08/03 01:52:16;;;;;;;4.97;1.90;;;;;;;18.15;100.00;99300.94;5607428;31;35134;-69
2023/08/03 01:55:19;;;;;;;3.50;1.90;;;;;;;18.11;100.00;99291.72;5607570;31;34553;-69
2023/08/03 01:58:22;;;;;;;2.50;1.70;;;;;;;18.11;100.00;99284.47;5607053;31;34986;-68
2023/08/03 02:01:25;;;;;;;3.42;1.87;;;;;;;18.06;100.00;99286.25;5607381;31;34620;-69
2023/08/03 02:04:28;;;;;;;3.42;2.00;;;;;;;18.09;100.00;99285.78;5607467;31;34374;-69
2023/08/03 02:07:55;;;;;;;4.30;2.00;;;;;;;18.06;100.00;99284.41;5607370;31;34442;-69
2023/08/03 02:10:58;;;;;;;5.32;2.25;;;;;;;18.05;100.00;99290.03;5607347;31;33698;-69
2023/08/03 02:14:01;;;;;;;10.02;2.37;;;;;;;18.00;100.00;99287.25;5607186;31;33749;-69
2023/08/03 02:17:04;;;;;;;3.70;2.03;;;;;;;17.94;100.00;99283.66;5607301;31;34530;-69
2023/08/03 02:20:08;;;;;;;2.97;1.92;;;;;;;17.96;100.00;99288.81;5607309;31;33745;-69
2023/08/03 02:23:11;;;;;;;3.87;1.77;;;;;;;17.91;100.00;99297.53;5607151;31;34691;-69
2023/08/03 02:26:14;;;;;;;3.20;1.98;;;;;;;17.89;100.00;99299.66;5607280;31;33794;-69
2023/08/03 02:29:17;;;;;;;3.62;2.03;;;;;;;17.85;100.00;99295.84;5607506;31;33600;-69
2023/08/03 02:32:21;;;;;;;4.32;1.90;;;;;;;17.88;100.00;99291.84;5607445;31;33820;-69
2023/08/03 02:35:24;;;;;;;4.10;2.00;;;;;;;17.85;100.00;99290.47;5607488;31;33608;-69
2023/08/03 02:38:27;;;;;;;5.85;2.12;;;;;;;17.83;100.00;99300.63;5607520;31;34876;-69
2023/08/03 02:41:33;;;;;;;3.37;1.98;;;;;;;17.80;100.00;99304.62;5607012;31;33604;-69
2023/08/03 02:44:37;;;;;;;6.28;2.30;;;;;;;17.73;100.00;99297.75;5606873;31;33934;-69
2023/08/03 02:47:40;;;;;;;3.03;2.10;;;;;;;17.67;100.00;99298.75;5607082;31;34026;-69
2023/08/03 02:50:44;;;;;;;3.53;2.00;;;;;;;17.63;100.00;99301.06;5607119;31;33831;-69
2023/08/03 02:53:46;;;;;;;3.10;2.15;;;;;;;17.63;100.00;99305.63;5606851;31;34650;-69
2023/08/03 02:56:49;;;;;;;3.58;2.03;;;;;;;17.62;100.00;99312.06;5606985;31;33875;-69
2023/08/03 02:59:52;;;;;;;5.60;2.22;;;;;;;17.55;100.00;99309.47;5607040;31;33798;-69
2023/08/03 03:02:55;;;;;;;5.03;2.12;;;;;;;17.51;100.00;99302.97;5606354;31;34791;-69
2023/08/03 03:05:58;;;;;;;5.87;2.20;;;;;;;17.52;100.00;99312.63;5606846;31;34637;-68
2023/08/03 03:09:02;;;;;;;5.37;2.30;;;;;;;17.50;100.00;99309.38;5606071;31;33701;-69
2023/08/03 03:12:06;;;;;;;8.10;2.47;;;;;;;17.47;100.00;99315.22;5606941;31;34590;-68
2023/08/03 03:15:10;;;;;;;7.00;2.10;;;;;;;17.45;100.00;99320.00;5606778;31;33884;-69
2023/08/03 03:18:13;;;;;;;4.40;2.28;;;;;;;17.44;100.00;99317.53;5606692;31;33829;-69
2023/08/03 03:21:16;;;;;;;3.30;2.25;;;;;;;17.40;100.00;99317.22;5606781;31;34350;-69
2023/08/03 03:24:19;;;;;;;8.30;2.65;;;;;;;17.44;100.00;99320.22;5606923;31;34000;-69
2023/08/03 03:27:22;;;;;;;4.37;2.40;;;;;;;17.45;100.00;99316.50;5606574;31;33819;-69
2023/08/03 03:30:25;;;;;;;8.38;2.30;;;;;;;17.47;100.00;99323.28;5606647;31;33588;-69
2023/08/03 03:33:28;;;;;;;5.80;2.33;;;;;;;17.50;100.00;99325.47;5606635;31;34521;-69
2023/08/03 03:36:31;;;;;;;5.80;2.50;;;;;;;17.50;100.00;99316.59;5606641;31;34591;-69
2023/08/03 03:39:35;;;;;;;5.30;2.40;;;;;;;17.50;100.00;99320.09;5605763;31;34410;-69
2023/08/03 03:42:37;;;;;;;6.45;2.60;;;;;;;17.49;100.00;99320.31;5606577;31;33720;-69
2023/08/03 03:45:41;;;;;;;6.60;2.60;;;;;;;17.46;100.00;99326.19;5606470;31;33917;-69
2023/08/03 03:48:44;;;;;;;6.15;2.50;;;;;;;17.47;100.00;99322.44;5606587;31;34099;-69
2023/08/03 03:51:48;;;;;;;7.10;2.35;;;;;;;17.55;100.00;99330.94;5606407;31;33870;-69
2023/08/03 03:54:51;;;;;;;4.10;2.53;;;;;;;17.66;100.00;99329.28;5606320;31;34009;-69
2023/08/03 03:57:57;;;;;;;6.87;2.58;;;;;;;17.73;100.00;99322.72;5592658;31;33928;-69
2023/08/03 04:01:01;;;;;;;6.15;2.50;;;;;;;17.95;100.00;99322.06;5605477;31;34520;-69
2023/08/03 04:04:05;;;;;;;5.72;2.30;;;;;;;18.28;100.00;99324.78;5606371;31;33859;-69
2023/08/03 04:07:08;;;;;;;7.07;2.50;;;;;;;18.39;100.00;99329.25;5606057;31;35215;-69
2023/08/03 04:10:11;;;;;;;5.53;2.50;;;;;;;18.45;100.00;99325.56;5606093;31;34513;-69
2023/08/03 04:13:13;;;;;;;9.98;2.65;;;;;;;18.58;100.00;99325.31;5606195;31;34155;-69
2023/08/03 04:16:16;;;;;;;5.75;2.72;;;;;;;18.76;100.00;99316.16;5601135;31;33619;-69
2023/08/03 04:19:19;;;;;;;9.07;2.78;;;;;;;18.85;100.00;99319.22;5588251;31;34500;-69
2023/08/03 04:22:24;;;;;;;8.10;2.80;;;;;;;18.81;100.00;99321.59;5606024;31;35126;-69
2023/08/03 04:25:27;;;;;;;7.30;3.00;;;;;;;18.74;100.00;99329.00;5591808;31;34215;-69
2023/08/03 04:28:31;;;;;;;12.57;2.90;;;;;;;18.71;100.00;99326.00;5593231;31;34877;-69
2023/08/03 04:31:34;;;;;;;7.78;2.60;;;;;;;18.64;100.00;99326.97;5585383;31;34432;-69
2023/08/03 04:34:38;;;;;;;7.70;2.90;;;;;;;18.62;100.00;99318.38;5586210;31;33755;-69
2023/08/03 04:37:42;;;;;;;6.28;2.72;;;;;;;18.70;100.00;99316.31;5585619;31;33667;-69
2023/08/03 04:40:45;;;;;;;5.72;2.85;;;;;;;18.81;100.00;99312.72;5585338;31;33946;-69
2023/08/03 04:43:48;;;;;;;7.20;2.80;;;;;;;18.94;100.00;99310.50;5585861;31;33922;-69
2023/08/03 04:46:51;;;;;;;9.48;2.92;;;;;;;19.10;100.00;99303.44;5585102;31;33964;-69
2023/08/03 04:49:56;;;;;;;7.82;3.17;;;;;;;19.13;100.00;99308.31;5585434;31;34552;-69
2023/08/03 04:52:59;;;;;;;5.00;2.75;;;;;;;19.18;100.00;99312.94;5585301;31;33729;-69
2023/08/03 04:56:02;;;;;;;8.07;3.17;;;;;;;19.26;100.00;99305.28;5585650;31;34149;-69
2023/08/03 04:59:05;;;;;;;5.50;2.75;;;;;;;19.40;100.00;99313.78;5585595;31;33494;-69
2023/08/03 05:02:10;;;;;;;11.93;3.75;;;;;;;19.53;100.00;99311.56;5585783;31;33802;-69
2023/08/03 05:05:14;;;;;;;4.82;3.30;;;;;;;19.76;100.00;99315.00;5585520;31;32814;-69
2023/08/03 05:08:17;;;;;;;6.55;3.28;;;;;;;19.81;100.00;99328.53;5585589;31;33562;-70
2023/08/03 05:11:20;;;;;;;5.32;3.30;;;;;;;19.99;100.00;99336.28;5585555;31;33786;-69
2023/08/03 05:14:23;;;;;;;7.47;3.60;;;;;;;19.94;100.00;99336.22;5585525;31;34928;-69
2023/08/03 05:17:30;;;;;;;6.80;3.40;;;;;;;20.07;100.00;99327.72;5585471;31;33890;-69
2023/08/03 05:20:34;;;;;;;6.18;3.22;;;;;;;20.02;100.00;99326.84;5585284;31;33821;-69
2023/08/03 05:23:37;;;;;;;7.40;3.67;;;;;;;20.15;100.00;99313.78;5585396;31;34850;-69
2023/08/03 05:26:42;;;;;;;9.68;3.87;;;;;;;20.33;100.00;99323.41;5585051;31;34268;-70
2023/08/03 05:29:46;;;;;;;10.07;3.58;;;;;;;20.39;100.00;99325.06;5584251;31;33842;-70
2023/08/03 05:32:50;;;;;;;7.80;3.42;;;;;;;20.54;100.00;99318.97;5586503;31;33872;-70
2023/08/03 05:35:53;;;;;;;8.25;3.70;;;;;;;20.56;100.00;99314.97;5587965;31;34756;-71
2023/08/03 05:38:56;;;;;;;7.68;3.58;;;;;;;20.63;100.00;99315.53;5588176;31;33575;-70
2023/08/03 05:42:02;;;;;;;8.48;3.45;;;;;;;20.77;100.00;99314.03;5574537;31;33727;-70
2023/08/03 05:45:35;;;;;;;11.50;3.70;;;;;;;20.74;100.00;99314.56;5602086;31;35048;-71
2023/08/03 05:48:37;;;;;;;7.57;3.40;;;;;;;20.93;100.00;99324.91;5607626;31;33910;-70
2023/08/03 05:51:40;;;;;;;14.82;4.15;;;;;;;20.90;100.00;99318.16;5606893;31;33640;-71
2023/08/03 05:54:47;;;;;;;10.07;3.60;;;;;;;21.14;100.00;99332.91;5606865;31;34396;-71
2023/08/03 05:57:49;;;;;;;6.87;3.45;;;;;;;21.33;100.00;99327.84;5592388;31;34077;-70
2023/08/03 06:00:52;;;;;;;6.82;3.35;;;;;;;21.49;100.00;99320.63;5587131;31;33813;-70
2023/08/03 06:03:55;;;;;;;7.47;3.80;;;;;;;21.59;100.00;99328.78;5586827;31;33832;-69
2023/08/03 06:07:02;;;;;;;8.02;3.95;;;;;;;21.66;100.00;99327.44;5588028;31;33838;-70
2023/08/03 06:10:09;;;;;;;10.88;3.37;;;;;;;21.80;100.00;99318.81;5593824;31;34447;-70
2023/08/03 06:13:14;;;;;;;7.68;3.50;;;;;;;21.88;100.00;99326.41;5606330;31;33328;-69
2023/08/03 06:16:18;;;;;;;9.90;3.50;;;;;;;21.92;100.00;99330.19;5607804;31;33661;-70
2023/08/03 06:19:20;;;;;;;7.30;3.20;;;;;;;22.05;100.00;99333.22;5606182;31;33880;-70
2023/08/03 06:22:23;;;;;;;7.40;3.53;;;;;;;22.11;100.00;99339.44;5588070;31;33068;-68
2023/08/03 06:25:27;;;;;;;8.63;3.67;;;;;;;22.24;100.00;99335.41;5593116;31;33809;-70
2023/08/03 06:28:31;;;;;;;6.40;3.35;;;;;;;22.35;100.00;99335.16;5607408;31;34154;-69
2023/08/03 06:31:37;;;;;;;6.18;3.40;;;;;;;22.48;100.00;99328.38;5607307;31;33863;-70
2023/08/03 06:34:40;;;;;;;8.18;3.37;;;;;;;22.60;100.00;99333.53;5607494;31;34412;-70
2023/08/03 06:37:43;;;;;;;8.73;3.65;;;;;;;22.75;100.00;99336.25;5606353;31;34844;-69
2023/08/03 06:40:46;;;;;;;9.43;3.08;;;;;;;22.88;100.00;99335.69;5607265;31;33969;-68
2023/08/03 06:43:49;;;;;;;9.18;3.50;;;;;;;23.01;100.00;99340.50;5606972;31;33655;-68
2023/08/03 06:46:52;;;;;;;13.82;3.95;;;;;;;23.18;100.00;99341.03;5606882;31;34756;-70
2023/08/03 06:49:55;;;;;;;8.32;3.33;;;;;;;23.39;100.00;99347.97;5606996;31;33947;-70
2023/08/03 06:52:59;;;;;;;5.85;3.20;;;;;;;23.45;100.00;99346.09;5605980;31;34312;-69
2023/08/03 06:56:03;;;;;;;6.70;3.03;;;;;;;23.59;100.00;99340.88;5606899;31;34619;-69
2023/08/03 06:59:06;;;;;;;11.02;3.95;;;;;;;23.77;100.00;99351.88;5607016;31;34839;-68
2023/08/03 07:02:08;;;;;;;7.62;3.50;;;;;;;23.68;100.00;99358.97;5605997;31;34904;-70
2023/08/03 07:05:11;;;;;;;7.80;3.60;;;;;;;24.25;100.00;99361.09;5607086;31;33626;-70
2023/08/03 07:08:14;;;;;;;8.38;3.50;;;;;;;24.50;100.00;99359.28;5606962;31;33571;-71
2023/08/03 07:11:17;;;;;;;9.98;3.47;;;;;;;24.43;100.00;99365.06;5606997;31;33844;-69
2023/08/03 07:14:19;;;;;;;6.57;3.33;;;;;;;24.36;100.00;99369.97;5604058;31;33960;-69
2023/08/03 07:17:22;;;;;;;5.50;3.17;;;;;;;24.13;100.00;99374.19;5606610;31;33708;-70
2023/08/03 07:20:25;;;;;;;7.97;3.60;;;;;;;24.50;100.00;99365.53;5605888;31;33774;-69
2023/08/03 07:23:28;;;;;;;8.82;3.37;;;;;;;24.68;100.00;99380.31;5606154;31;33760;-69
2023/08/03 07:26:30;;;;;;;7.05;4.12;;;;;;;24.86;100.00;99384.22;5606278;31;33720;-70
2023/08/03 07:29:34;;;;;;;5.75;3.45;;;;;;;24.30;100.00;99390.09;5605946;31;34115;-69
2023/08/03 07:32:37;;;;;;;10.00;3.78;;;;;;;24.32;100.00;99387.91;5605363;31;34450;-69
2023/08/03 07:35:40;;;;;;;5.82;3.45;;;;;;;24.51;100.00;99385.31;5606720;31;34089;-70
2023/08/03 07:38:43;;;;;;;7.93;3.62;;;;;;;24.65;100.00;99395.25;5606492;31;34025;-69
2023/08/03 07:41:46;;;;;;;4.80;3.40;;;;;;;24.37;100.00;99396.00;5606323;31;33829;-69
2023/08/03 07:44:55;;;;;;;8.07;3.72;;;;;;;24.29;100.00;99396.63;5599570;31;208315;-69
2023/08/03 07:47:58;;;;;;;5.05;3.22;;;;;;;24.16;100.00;99408.03;5606258;31;34412;-68
2023/08/03 07:51:11;;;;;;;5.75;3.55;;;;;;;23.96;100.00;99411.69;5604684;31;34932;-70
2023/08/03 07:54:15;;;;;;;9.05;3.87;;;;;;;23.70;100.00;99412.88;5605825;31;33849;-70
2023/08/03 07:57:18;;;;;;;6.75;3.78;;;;;;;23.28;100.00;99419.47;5605560;31;33777;-71
2023/08/03 08:00:21;;;;;;;5.57;4.00;;;;;;;23.24;100.00;99425.69;5605921;31;34131;-70
2023/08/03 08:03:24;;;;;;;5.75;4.10;;;;;;;23.21;100.00;99427.06;5606103;31;34128;-72
2023/08/03 08:06:27;;;;;;;7.70;3.80;;;;;;;23.45;100.00;99424.59;5605917;31;33919;-70
2023/08/03 08:09:30;;;;;;;5.50;3.85;;;;;;;23.74;100.00;99422.88;5605506;31;34775;-69
2023/08/03 08:12:32;;;;;;;9.82;4.28;;;;;;;23.57;100.00;99422.41;5606126;31;34579;-70
2023/08/03 08:15:36;;;;;;;10.32;4.20;;;;;;;23.47;100.00;99433.25;5606191;31;34186;-71
2023/08/03 08:18:40;;;;;;;7.28;3.97;;;;;;;23.78;100.00;99429.34;5605175;31;33708;-71
2023/08/03 08:21:43;;;;;;;7.30;4.37;;;;;;;23.99;100.00;99443.63;5606026;31;33756;-71
2023/08/03 08:24:46;;;;;;;6.32;4.35;;;;;;;23.61;100.00;99433.50;5606023;31;33795;-70
2023/08/03 08:27:49;;;;;;;8.35;4.20;;;;;;;23.57;100.00;99437.84;5605838;31;33639;-70
2023/08/03 08:30:52;;;;;;;9.43;4.10;;;;;;;25.15;100.00;99454.81;5605857;31;34102;-73
2023/08/03 08:33:55;;;;;;;6.72;4.20;;;;;;;26.47;100.00;99454.94;5605511;31;34382;-71
2023/08/03 08:36:57;;;;;;;6.82;3.72;;;;;;;25.98;100.00;99470.78;5605207;31;33881;-73
2023/08/03 08:40:00;;;;;;;6.03;3.60;;;;;;;26.06;100.00;99476.38;5604083;31;32607;-71
2023/08/03 08:43:06;;;;;;;6.22;3.60;;;;;;;27.47;92.25;99467.97;5604211;31;33663;-71
2023/08/03 08:46:09;;;;;;;5.85;3.22;;;;;;;28.07;81.19;99473.38;5604922;31;33687;-71
2023/08/03 08:49:12;;;;;;;6.62;3.45;;;;;;;27.90;83.35;99473.97;5598957;31;33834;-71
2023/08/03 08:52:19;;;;;;;7.05;3.30;;;;;;;26.68;93.51;99460.84;5584226;31;34029;-71
2023/08/03 08:55:24;;;;;;;8.02;3.50;;;;;;;28.04;84.53;99476.69;5584845;31;33922;-71
2023/08/03 08:58:30;;;;;;;7.12;3.40;;;;;;;28.27;79.96;99475.66;5585023;31;34803;-71
2023/08/03 09:01:54;;;;;;;5.40;3.10;;;;;;;27.96;81.67;99471.97;5584568;31;35166;-72
2023/08/03 09:05:14;;;;;;;8.48;3.20;;;;;;;27.12;87.11;99469.41;5595865;31;34070;-74
2023/08/03 09:08:18;;;;;;;5.03;2.97;;;;;;;27.54;87.92;99476.59;5605273;31;33742;-73
2023/08/03 09:11:40;;;;;;;7.30;3.10;;;;;;;28.34;79.20;99484.25;5607225;31;33728;-74
2023/08/03 09:14:51;;;;;;;6.90;2.85;;;;;;;29.98;69.18;99488.91;5586936;31;33199;-72
2023/08/03 09:18:03;;;;;;;5.90;2.85;;;;;;;30.81;62.50;99502.59;5587858;31;34502;-71
2023/08/03 09:21:15;;;;;;;7.53;2.75;;;;;;;31.42;59.75;99493.16;5607160;31;34421;-74
2023/08/03 09:24:22;;;;;;;6.30;3.12;;;;;;;32.34;56.67;99483.25;5606760;31;33879;-73
2023/08/03 09:27:28;;;;;;;6.25;3.00;;;;;;;33.69;52.15;99500.00;5606612;31;34190;-73
2023/08/03 09:30:47;;;;;;;7.37;2.78;;;;;;;31.32;57.54;99496.28;5605430;31;34572;-72
2023/08/03 09:34:04;;;;;;;9.90;2.90;;;;;;;29.54;65.56;99486.28;5606542;31;34118;-73
2023/08/03 09:37:07;;;;;;;5.05;2.95;;;;;;;28.99;69.49;99492.06;5606854;31;34921;-71
2023/08/03 09:40:12;;;;;;;6.25;3.40;;;;;;;28.74;72.53;99485.28;5607329;31;33418;-71
2023/08/03 09:43:17;;;;;;;5.72;3.37;;;;;;;27.98;79.00;99484.16;5606893;31;34451;-72
2023/08/03 09:46:22;;;;;;;5.03;3.05;;;;;;;30.00;66.21;99502.28;5607375;31;33878;-71
2023/08/03 09:49:26;;;;;;;7.87;3.10;;;;;;;30.49;63.60;99509.34;5607544;31;33684;-71
2023/08/03 09:52:30;;;;;;;6.72;3.30;;;;;;;29.28;67.85;99508.81;5607619;31;33648;-73
2023/08/03 09:55:42;;;;;;;6.68;3.08;;;;;;;28.51;75.51;99510.91;5607460;31;34241;-72
2023/08/03 09:58:52;;;;;;;7.28;3.28;;;;;;;29.58;68.94;99518.16;5607353;31;33974;-74
2023/08/03 10:02:03;;;;;;;4.35;2.80;;;;;;;31.87;58.86;99516.25;5607490;31;34149;-73
2023/08/03 10:05:09;;;;;;;4.40;2.90;;;;;;;32.81;54.31;99518.81;5607438;31;33985;-73
2023/08/03 10:08:22;;;;;;;3.15;2.35;;;;;;;34.81;47.78;99524.00;5602439;31;33773;-72
2023/08/03 10:11:30;;;;;;;6.18;2.70;;;;;;;34.81;45.37;99532.28;5586744;31;33804;-74
2023/08/03 10:14:38;;;;;;;6.05;2.72;;;;;;;34.53;45.89;99534.16;5587444;31;33926;-72
2023/08/03 10:17:43;;;;;;;7.15;2.92;;;;;;;35.11;45.36;99520.91;5587303;31;33932;-73
2023/08/03 10:20:48;;;;;;;4.12;2.50;;;;;;;35.60;43.01;99525.03;5586160;31;33626;-72
2023/08/03 10:24:08;;;;;;;7.03;2.80;;;;;;;37.95;38.42;99528.97;5594986;31;33792;-73
2023/08/03 10:27:19;;;;;;;5.80;2.60;;;;;;;35.86;41.91;99519.03;5607191;31;34380;-74
2023/08/03 10:31:00;;;;;;;6.35;2.75;;;;;;;35.47;42.32;99514.44;5607008;31;33536;-74
2023/08/03 10:34:03;;;;;;;6.70;2.78;;;;;;;35.07;42.57;99515.31;5606222;31;34875;-71
2023/08/03 10:37:12;;;;;;;5.93;2.75;;;;;;;35.19;42.10;99515.28;5607204;31;33781;-72
2023/08/03 10:40:23;;;;;;;6.40;2.60;;;;;;;34.17;44.70;99514.91;5607102;31;33642;-71
2023/08/03 10:43:26;;;;;;;4.80;2.17;;;;;;;35.03;41.45;99502.56;5606909;31;33884;-73
2023/08/03 10:46:30;;;;;;;4.43;2.45;;;;;;;36.42;39.01;99510.50;5605768;31;34395;-72
2023/08/03 10:49:42;;;;;;;3.08;2.33;;;;;;;35.57;39.02;99511.97;5606915;31;33844;-76
2023/08/03 10:52:44;;;;;;;3.97;2.33;;;;;;;35.18;38.79;99516.44;5604370;31;34276;-73
2023/08/03 10:55:48;;;;;;;3.90;2.22;;;;;;;33.75;39.94;99515.13;5586490;31;33725;-73
2023/08/03 10:58:51;;;;;;;9.07;2.30;;;;;;;35.22;36.35;99516.53;5585979;31;33838;-72
2023/08/03 11:01:54;;;;;;;4.70;2.12;;;;;;;34.20;37.17;99514.25;5607088;31;34523;-73
2023/08/03 11:04:59;;;;;;;2.72;2.00;;;;;;;33.94;38.95;99504.34;5605850;31;33975;-72
2023/08/03 11:08:04;;;;;;;3.15;2.20;;;;;;;36.89;33.91;99513.13;5606655;31;33914;-74
2023/08/03 11:11:16;;;;;;;3.83;1.90;;;;;;;37.22;32.93;99526.44;5606984;31;33922;-74
2023/08/03 11:14:19;;;;;;;4.05;1.75;;;;;;;33.70;33.61;99515.34;5606951;31;33614;-74
2023/08/03 11:17:27;;;;;;;5.30;1.80;;;;;;;33.18;35.06;99523.34;5590523;31;32728;-74
2023/08/03 11:20:30;;;;;;;11.05;2.03;;;;;;;35.39;32.40;99527.22;5587505;31;33623;-76
2023/08/03 11:23:35;;;;;;;4.80;2.10;;;;;;;35.02;32.57;99528.53;5591649;31;34405;-75
2023/08/03 11:26:38;;;;;;;4.37;2.00;;;;;;;34.01;34.02;99526.63;5606618;31;33887;-72
2023/08/03 11:29:41;;;;;;;5.10;1.90;;;;;;;34.09;34.32;99532.34;5586382;31;34128;-73
2023/08/03 11:32:45;;;;;;;5.37;2.10;;;;;;;32.75;36.76;99535.50;5585787;31;34025;-74
2023/08/03 11:35:48;;;;;;;6.72;2.20;;;;;;;31.91;39.06;99546.56;5603227;31;33305;-74
2023/08/03 11:38:52;;;;;;;4.05;2.37;;;;;;;31.50;40.15;99549.91;5599232;31;34433;-72
2023/08/03 11:41:55;;;;;;;3.42;2.30;;;;;;;30.67;42.81;99556.69;5599642;31;34935;-72
2023/08/03 11:44:58;;;;;;;3.10;2.30;;;;;;;30.81;42.38;99560.09;5590587;31;33631;-71
2023/08/03 11:48:00;;;;;;;4.32;2.55;;;;;;;30.51;44.14;99564.56;5606506;31;33938;-72
2023/08/03 11:51:03;;;;;;;3.87;2.40;;;;;;;30.50;46.68;99550.06;5595235;31;34499;-73
2023/08/03 11:54:08;;;;;;;10.18;2.47;;;;;;;31.22;45.16;99567.88;5606238;31;35230;-73
2023/08/03 12:00:32;;;;;;;3.83;1.90;;;;;;;29.68;43.55;99571.75;5588591;31;34034;-73
2023/08/03 12:03:36;;;;;;;6.40;1.80;;;;;;;29.86;41.56;99569.94;5585723;31;34015;-73
2023/08/03 12:06:43;;;;;;;4.90;1.85;;;;;;;29.94;39.27;99571.91;5586417;31;34497;-73
2023/08/03 12:09:50;;;;;;;5.07;1.75;;;;;;;31.64;36.47;99567.00;5586478;31;34191;-73
2023/08/03 12:12:53;;;;;;;3.72;1.50;;;;;;;33.66;32.60;99554.84;5586774;31;34378;-74
2023/08/03 12:16:04;;;;;;;2.95;1.42;;;;;;;34.26;30.32;99562.44;5586880;31;33679;-75
2023/08/03 12:19:09;;;;;;;3.87;1.48;;;;;;;33.42;30.99;99577.59;5585319;31;34518;-75
2023/08/03 12:22:15;;;;;;;3.10;1.60;;;;;;;32.23;32.09;99578.91;5587927;31;34008;-74
2023/08/03 12:25:18;;;;;;;2.65;1.50;;;;;;;32.73;32.38;99587.19;5586129;31;33893;-75
2023/08/03 12:28:24;;;;;;;2.90;1.37;;;;;;;34.54;30.36;99581.78;5585286;31;33612;-77
2023/08/03 12:31:30;;;;;;;4.30;1.30;;;;;;;35.63;27.62;99585.03;5586155;31;32457;-74
2023/08/03 12:34:33;;;;;;;3.95;1.37;;;;;;;34.37;29.80;99578.12;5586286;31;33682;-74
2023/08/03 12:37:36;;;;;;;3.17;1.52;;;;;;;35.72;29.02;99591.22;5586359;31;33626;-74
2023/08/03 12:40:39;;;;;;;3.30;1.77;;;;;;;33.30;34.75;99592.13;5586632;31;33986;-74
2023/08/03 12:43:41;;;;;;;3.03;1.67;;;;;;;34.18;34.84;99585.38;5587309;31;33861;-74
2023/08/03 12:46:44;;;;;;;5.95;1.70;;;;;;;35.05;34.07;99600.31;5590923;31;34046;-74
2023/08/03 12:49:47;;;;;;;3.60;1.80;;;;;;;35.74;33.43;99605.47;5592687;31;33585;-74
2023/08/03 12:52:52;;;;;;;2.30;1.80;;;;;;;35.97;32.72;99610.41;5592531;31;33688;-74
2023/08/03 12:55:55;;;;;;;5.35;1.87;;;;;;;35.70;33.60;99601.81;5591464;31;34601;-74
2023/08/03 12:58:58;;;;;;;13.62;2.20;;;;;;;35.99;33.87;99602.53;5592373;31;33934;-76
2023/08/03 13:02:01;;;;;;;12.60;2.75;;;;;;;37.48;32.12;99608.72;5591612;31;33824;-73
2023/08/03 13:05:04;;;;;;;6.50;2.00;;;;;;;38.13;31.36;99620.66;5592416;31;34333;-73
2023/08/03 13:08:07;;;;;;;3.87;2.03;;;;;;;36.98;33.17;99607.72;5592120;31;33696;-73
2023/08/03 13:11:10;;;;;;;7.60;1.65;;;;;;;36.89;33.34;99627.25;5592019;31;34096;-74
2023/08/03 13:14:12;;;;;;;5.22;1.98;;;;;;;36.42;34.80;99616.28;5594360;31;34058;-74
2023/08/03 13:17:16;;;;;;;4.18;2.00;;;;;;;35.68;35.55;99620.66;5591121;31;34734;-73
2023/08/03 13:20:18;;;;;;;2.42;1.83;;;;;;;35.55;35.57;99601.75;5592089;31;34928;-73
2023/08/03 13:23:21;;;;;;;3.28;1.90;;;;;;;36.94;33.18;99582.72;5591578;31;33808;-73
2023/08/03 13:26:24;;;;;;;4.65;1.92;;;;;;;39.55;30.00;99590.22;5590854;31;34231;-74
2023/08/03 13:29:30;;;;;;;4.53;1.73;;;;;;;38.36;31.22;99593.72;5592100;31;33492;-72
2023/08/03 13:32:33;;;;;;;5.72;1.98;;;;;;;38.90;30.84;99593.38;5590745;31;33874;-74
2023/08/03 13:35:36;;;;;;;5.18;2.00;;;;;;;39.79;29.44;99606.38;5590796;31;33647;-73
2023/08/03 13:38:41;;;;;;;4.43;1.80;;;;;;;38.77;30.45;99600.31;5599363;31;33917;-74
2023/08/03 13:41:44;;;;;;;5.60;1.90;;;;;;;38.31;31.42;99599.59;5592117;31;34083;-72
2023/08/03 13:44:46;;;;;;;10.63;1.98;;;;;;;40.17;28.94;99607.09;5591175;31;34525;-74
2023/08/03 13:47:49;;;;;;;5.43;2.08;;;;;;;41.74;27.82;99607.56;5591132;31;34490;-73
2023/08/03 13:50:52;;;;;;;3.90;1.80;;;;;;;42.28;26.16;99623.16;5591314;31;33910;-75
2023/08/03 13:53:56;;;;;;;3.25;1.87;;;;;;;40.17;25.86;99621.78;5589081;31;33791;-73
2023/08/03 13:56:59;;;;;;;2.47;1.42;;;;;;;35.59;30.72;99622.75;5588522;31;33722;-72
2023/08/03 14:00:05;;;;;;;3.45;1.77;;;;;;;36.84;29.30;99615.69;5587783;31;33809;-72
2023/08/03 14:03:07;;;;;;;2.92;1.67;;;;;;;35.04;32.47;99608.94;5587834;31;34127;-72
2023/08/03 14:06:11;;;;;;;7.80;1.65;;;;;;;36.25;30.86;99602.84;5587455;31;34596;-73
2023/08/03 14:09:17;;;;;;;4.05;1.65;;;;;;;36.67;30.82;99599.50;5587682;31;34460;-72
2023/08/03 14:12:21;;;;;;;3.67;1.60;;;;;;;38.09;29.55;99601.22;5586502;31;34991;-72
2023/08/03 14:15:23;;;;;;;7.15;2.00;;;;;;;39.72;27.53;99603.47;5587766;31;33907;-73
2023/08/03 14:18:31;;;;;;;3.37;1.75;;;;;;;39.07;27.75;99603.13;5587470;31;33923;-72
2023/08/03 14:21:36;;;;;;;5.03;1.50;;;;;;;36.63;30.28;99602.19;5587545;31;33709;-72
2023/08/03 14:24:55;;;;;;;5.15;1.80;;;;;;;38.04;28.55;99603.50;5586801;31;34767;-73